sensor_id;sensor_type;location;lat;lon;timestamp;P1;durP1;ratioP1;P2;durP2;ratioP2
81546;SDS011;71078;48.358;10.960;2023-10-13T00:02:19;9.23;;;2.33;;
81546;SDS011;71078;48.358;10.960;2023-10-13T00:04:43;6.50;;;1.80;;
81546;SDS011;71078;48.358;10.960;2023-10-13T00:07:06;6.63;;;1.85;;
81546;SDS011;71078;48.358;10.960;2023-10-13T00:09:30;7.60;;;4.00;;
81546;SDS011;71078;48.358;10.960;2023-10-13T00:11:55;7.15;;;3.38;;
81546;SDS011;71078;48.358;10.960;2023-10-13T00:14:16;5.75;;;1.90;;
81546;SDS011;71078;48.358;10.960;2023-10-13T00:16:37;8.40;;;2.38;;
81546;SDS011;71078;48.358;10.960;2023-10-13T00:19:00;7.20;;;1.60;;
81546;SDS011;71078;48.358;10.960;2023-10-13T00:21:21;7.88;;;2.42;;
81546;SDS011;71078;48.358;10.960;2023-10-13T00:23:51;6.05;;;1.92;;
81546;SDS011;71078;48.358;10.960;2023-10-13T00:26:15;6.28;;;2.03;;
81546;SDS011;71078;48.358;10.960;2023-10-13T00:28:38;7.18;;;2.03;;
81546;SDS011;71078;48.358;10.960;2023-10-13T00:31:08;8.55;;;2.03;;
81546;SDS011;71078;48.358;10.960;2023-10-13T00:33:32;6.55;;;1.95;;
81546;SDS011;71078;48.358;10.960;2023-10-13T00:35:53;6.80;;;1.80;;
81546;SDS011;71078;48.358;10.960;2023-10-13T00:38:18;9.82;;;3.30;;
81546;SDS011;71078;48.358;10.960;2023-10-13T00:43:05;8.30;;;2.60;;
81546;SDS011;71078;48.358;10.960;2023-10-13T00:45:40;6.35;;;2.47;;
81546;SDS011;71078;48.358;10.960;2023-10-13T00:48:01;6.32;;;1.67;;
81546;SDS011;71078;48.358;10.960;2023-10-13T00:50:22;7.30;;;1.55;;
81546;SDS011;71078;48.358;10.960;2023-10-13T00:52:44;8.27;;;2.80;;
81546;SDS011;71078;48.358;10.960;2023-10-13T00:55:11;7.35;;;2.72;;
81546;SDS011;71078;48.358;10.960;2023-10-13T00:57:34;7.18;;;2.30;;
81546;SDS011;71078;48.358;10.960;2023-10-13T00:59:55;8.18;;;3.33;;
81546;SDS011;71078;48.358;10.960;2023-10-13T01:02:32;5.55;;;2.05;;
81546;SDS011;71078;48.358;10.960;2023-10-13T01:04:55;5.25;;;1.60;;
81546;SDS011;71078;48.358;10.960;2023-10-13T01:07:17;7.22;;;2.05;;
81546;SDS011;71078;48.358;10.960;2023-10-13T01:09:41;9.00;;;2.33;;
81546;SDS011;71078;48.358;10.960;2023-10-13T01:12:02;7.95;;;2.05;;
81546;SDS011;71078;48.358;10.960;2023-10-13T01:14:23;6.85;;;2.05;;
81546;SDS011;71078;48.358;10.960;2023-10-13T01:16:49;7.07;;;3.45;;
81546;SDS011;71078;48.358;10.960;2023-10-13T01:19:13;6.65;;;3.05;;
81546;SDS011;71078;48.358;10.960;2023-10-13T01:21:39;13.30;;;5.80;;
81546;SDS011;71078;48.358;10.960;2023-10-13T01:24:08;19.58;;;8.43;;
81546;SDS011;71078;48.358;10.960;2023-10-13T01:26:29;12.38;;;6.78;;
81546;SDS011;71078;48.358;10.960;2023-10-13T01:28:50;7.88;;;3.67;;
81546;SDS011;71078;48.358;10.960;2023-10-13T01:31:12;8.00;;;3.85;;
81546;SDS011;71078;48.358;10.960;2023-10-13T01:33:37;7.72;;;2.13;;
81546;SDS011;71078;48.358;10.960;2023-10-13T01:35:58;9.55;;;2.72;;
81546;SDS011;71078;48.358;10.960;2023-10-13T01:38:27;7.65;;;2.63;;
81546;SDS011;71078;48.358;10.960;2023-10-13T01:40:48;8.27;;;2.55;;
81546;SDS011;71078;48.358;10.960;2023-10-13T01:43:12;7.80;;;2.42;;
81546;SDS011;71078;48.358;10.960;2023-10-13T01:45:32;5.75;;;2.33;;
81546;SDS011;71078;48.358;10.960;2023-10-13T01:47:52;6.47;;;1.75;;
81546;SDS011;71078;48.358;10.960;2023-10-13T01:50:13;6.03;;;1.80;;
81546;SDS011;71078;48.358;10.960;2023-10-13T01:52:39;6.78;;;1.73;;
81546;SDS011;71078;48.358;10.960;2023-10-13T01:55:02;6.95;;;3.22;;
81546;SDS011;71078;48.358;10.960;2023-10-13T01:57:25;6.47;;;2.20;;
81546;SDS011;71078;48.358;10.960;2023-10-13T01:59:46;6.45;;;1.98;;
81546;SDS011;71078;48.358;10.960;2023-10-13T02:02:08;6.53;;;1.75;;
81546;SDS011;71078;48.358;10.960;2023-10-13T02:04:32;5.97;;;1.88;;
81546;SDS011;71078;48.358;10.960;2023-10-13T02:06:53;7.50;;;1.98;;
81546;SDS011;71078;48.358;10.960;2023-10-13T02:09:16;6.13;;;1.52;;
81546;SDS011;71078;48.358;10.960;2023-10-13T02:11:47;8.13;;;3.53;;
81546;SDS011;71078;48.358;10.960;2023-10-13T02:14:09;5.70;;;1.83;;
81546;SDS011;71078;48.358;10.960;2023-10-13T02:16:37;5.63;;;2.63;;
81546;SDS011;71078;48.358;10.960;2023-10-13T02:18:58;8.18;;;3.17;;
81546;SDS011;71078;48.358;10.960;2023-10-13T02:21:24;6.78;;;2.85;;
81546;SDS011;71078;48.358;10.960;2023-10-13T02:23:51;5.63;;;1.83;;
81546;SDS011;71078;48.358;10.960;2023-10-13T02:26:23;7.32;;;2.08;;
81546;SDS011;71078;48.358;10.960;2023-10-13T02:28:50;8.57;;;3.70;;
81546;SDS011;71078;48.358;10.960;2023-10-13T02:31:12;9.02;;;3.40;;
81546;SDS011;71078;48.358;10.960;2023-10-13T02:33:33;8.02;;;3.28;;
81546;SDS011;71078;48.358;10.960;2023-10-13T02:36:03;5.75;;;2.10;;
81546;SDS011;71078;48.358;10.960;2023-10-13T02:38:27;6.82;;;2.40;;
81546;SDS011;71078;48.358;10.960;2023-10-13T02:40:58;6.72;;;1.80;;
81546;SDS011;71078;48.358;10.960;2023-10-13T02:43:25;6.20;;;2.00;;
81546;SDS011;71078;48.358;10.960;2023-10-13T02:45:52;5.65;;;1.92;;
81546;SDS011;71078;48.358;10.960;2023-10-13T02:48:18;8.60;;;2.33;;
81546;SDS011;71078;48.358;10.960;2023-10-13T02:50:41;5.70;;;3.03;;
81546;SDS011;71078;48.358;10.960;2023-10-13T02:53:04;6.18;;;2.17;;
81546;SDS011;71078;48.358;10.960;2023-10-13T02:55:32;6.65;;;1.92;;
81546;SDS011;71078;48.358;10.960;2023-10-13T02:57:53;7.13;;;2.17;;
81546;SDS011;71078;48.358;10.960;2023-10-13T03:00:16;6.93;;;1.77;;
81546;SDS011;71078;48.358;10.960;2023-10-13T03:02:37;7.45;;;3.03;;
81546;SDS011;71078;48.358;10.960;2023-10-13T03:05:07;6.05;;;3.30;;
81546;SDS011;71078;48.358;10.960;2023-10-13T03:07:34;6.65;;;3.42;;
81546;SDS011;71078;48.358;10.960;2023-10-13T03:09:56;6.10;;;2.83;;
81546;SDS011;71078;48.358;10.960;2023-10-13T03:12:20;7.70;;;3.67;;
81546;SDS011;71078;48.358;10.960;2023-10-13T03:14:42;6.65;;;3.22;;
81546;SDS011;71078;48.358;10.960;2023-10-13T03:19:35;7.80;;;1.65;;
81546;SDS011;71078;48.358;10.960;2023-10-13T03:21:59;6.97;;;3.75;;
81546;SDS011;71078;48.358;10.960;2023-10-13T03:24:30;8.15;;;2.85;;
81546;SDS011;71078;48.358;10.960;2023-10-13T03:26:54;8.02;;;2.38;;
81546;SDS011;71078;48.358;10.960;2023-10-13T03:29:14;6.47;;;1.90;;
81546;SDS011;71078;48.358;10.960;2023-10-13T03:31:42;7.03;;;2.28;;
81546;SDS011;71078;48.358;10.960;2023-10-13T03:34:06;6.65;;;3.28;;
81546;SDS011;71078;48.358;10.960;2023-10-13T03:36:32;10.13;;;2.15;;
81546;SDS011;71078;48.358;10.960;2023-10-13T03:39:12;6.90;;;2.58;;
81546;SDS011;71078;48.358;10.960;2023-10-13T03:41:33;8.02;;;2.13;;
81546;SDS011;71078;48.358;10.960;2023-10-13T03:43:57;9.13;;;3.67;;
81546;SDS011;71078;48.358;10.960;2023-10-13T03:48:50;6.95;;;3.30;;
81546;SDS011;71078;48.358;10.960;2023-10-13T03:53:50;8.90;;;2.45;;
81546;SDS011;71078;48.358;10.960;2023-10-13T03:56:15;6.55;;;2.05;;
81546;SDS011;71078;48.358;10.960;2023-10-13T03:58:36;8.88;;;3.40;;
81546;SDS011;71078;48.358;10.960;2023-10-13T04:00:59;8.63;;;3.80;;
81546;SDS011;71078;48.358;10.960;2023-10-13T04:03:20;8.10;;;2.42;;
81546;SDS011;71078;48.358;10.960;2023-10-13T04:05:53;9.45;;;4.78;;
81546;SDS011;71078;48.358;10.960;2023-10-13T04:08:26;6.70;;;3.38;;
81546;SDS011;71078;48.358;10.960;2023-10-13T04:10:47;8.45;;;3.28;;
81546;SDS011;71078;48.358;10.960;2023-10-13T04:13:28;8.10;;;2.10;;
81546;SDS011;71078;48.358;10.960;2023-10-13T04:16:08;5.50;;;1.70;;
81546;SDS011;71078;48.358;10.960;2023-10-13T04:18:51;6.88;;;2.75;;
81546;SDS011;71078;48.358;10.960;2023-10-13T04:21:15;7.82;;;2.00;;
81546;SDS011;71078;48.358;10.960;2023-10-13T04:23:54;8.63;;;2.85;;
81546;SDS011;71078;48.358;10.960;2023-10-13T04:26:34;8.18;;;2.83;;
81546;SDS011;71078;48.358;10.960;2023-10-13T04:28:57;6.95;;;3.25;;
81546;SDS011;71078;48.358;10.960;2023-10-13T04:31:29;5.78;;;1.90;;
81546;SDS011;71078;48.358;10.960;2023-10-13T04:34:17;7.20;;;3.47;;
81546;SDS011;71078;48.358;10.960;2023-10-13T04:36:48;6.72;;;3.28;;
81546;SDS011;71078;48.358;10.960;2023-10-13T04:39:15;7.65;;;3.20;;
81546;SDS011;71078;48.358;10.960;2023-10-13T04:41:49;8.02;;;3.03;;
81546;SDS011;71078;48.358;10.960;2023-10-13T04:44:10;7.45;;;3.28;;
81546;SDS011;71078;48.358;10.960;2023-10-13T04:46:44;7.90;;;2.60;;
81546;SDS011;71078;48.358;10.960;2023-10-13T04:49:08;8.07;;;2.40;;
81546;SDS011;71078;48.358;10.960;2023-10-13T04:51:47;6.95;;;2.88;;
81546;SDS011;71078;48.358;10.960;2023-10-13T04:54:18;8.50;;;4.40;;
81546;SDS011;71078;48.358;10.960;2023-10-13T04:56:46;7.72;;;4.15;;
81546;SDS011;71078;48.358;10.960;2023-10-13T04:59:48;7.00;;;2.00;;
81546;SDS011;71078;48.358;10.960;2023-10-13T05:02:29;6.80;;;3.17;;
81546;SDS011;71078;48.358;10.960;2023-10-13T05:04:56;7.25;;;3.45;;
81546;SDS011;71078;48.358;10.960;2023-10-13T05:07:25;7.63;;;3.42;;
81546;SDS011;71078;48.358;10.960;2023-10-13T05:10:05;6.18;;;2.00;;
81546;SDS011;71078;48.358;10.960;2023-10-13T05:12:45;6.85;;;3.60;;
81546;SDS011;71078;48.358;10.960;2023-10-13T05:15:25;7.28;;;3.47;;
81546;SDS011;71078;48.358;10.960;2023-10-13T05:18:04;7.30;;;3.15;;
81546;SDS011;71078;48.358;10.960;2023-10-13T05:20:44;8.25;;;3.22;;
81546;SDS011;71078;48.358;10.960;2023-10-13T05:23:23;6.03;;;3.17;;
81546;SDS011;71078;48.358;10.960;2023-10-13T05:26:03;8.75;;;3.85;;
81546;SDS011;71078;48.358;10.960;2023-10-13T05:28:42;6.55;;;2.63;;
81546;SDS011;71078;48.358;10.960;2023-10-13T05:31:37;5.65;;;2.30;;
81546;SDS011;71078;48.358;10.960;2023-10-13T05:34:17;7.55;;;2.15;;
81546;SDS011;71078;48.358;10.960;2023-10-13T05:36:56;6.28;;;2.22;;
81546;SDS011;71078;48.358;10.960;2023-10-13T05:39:36;6.95;;;3.22;;
81546;SDS011;71078;48.358;10.960;2023-10-13T05:42:15;6.72;;;2.85;;
81546;SDS011;71078;48.358;10.960;2023-10-13T05:44:55;5.60;;;1.55;;
81546;SDS011;71078;48.358;10.960;2023-10-13T05:47:33;6.95;;;3.97;;
81546;SDS011;71078;48.358;10.960;2023-10-13T05:50:04;9.02;;;5.32;;
81546;SDS011;71078;48.358;10.960;2023-10-13T05:52:37;7.72;;;4.38;;
81546;SDS011;71078;48.358;10.960;2023-10-13T05:55:16;7.70;;;2.20;;
81546;SDS011;71078;48.358;10.960;2023-10-13T05:57:55;8.13;;;3.95;;
81546;SDS011;71078;48.358;10.960;2023-10-13T06:00:38;8.20;;;3.15;;
81546;SDS011;71078;48.358;10.960;2023-10-13T06:03:18;8.38;;;3.83;;
81546;SDS011;71078;48.358;10.960;2023-10-13T06:05:58;9.00;;;4.18;;
81546;SDS011;71078;48.358;10.960;2023-10-13T06:08:37;6.13;;;3.70;;
81546;SDS011;71078;48.358;10.960;2023-10-13T06:11:17;8.73;;;3.20;;
81546;SDS011;71078;48.358;10.960;2023-10-13T06:13:56;8.85;;;2.70;;
81546;SDS011;71078;48.358;10.960;2023-10-13T06:16:35;8.13;;;3.63;;
81546;SDS011;71078;48.358;10.960;2023-10-13T06:19:15;8.00;;;2.95;;
81546;SDS011;71078;48.358;10.960;2023-10-13T06:21:54;9.15;;;2.90;;
81546;SDS011;71078;48.358;10.960;2023-10-13T06:24:34;8.18;;;2.08;;
81546;SDS011;71078;48.358;10.960;2023-10-13T06:27:16;10.73;;;3.33;;
81546;SDS011;71078;48.358;10.960;2023-10-13T06:29:56;6.90;;;3.95;;
81546;SDS011;71078;48.358;10.960;2023-10-13T06:32:17;10.02;;;4.35;;
81546;SDS011;71078;48.358;10.960;2023-10-13T06:34:38;7.40;;;3.50;;
81546;SDS011;71078;48.358;10.960;2023-10-13T06:37:05;6.60;;;2.65;;
81546;SDS011;71078;48.358;10.960;2023-10-13T06:39:46;7.68;;;2.80;;
81546;SDS011;71078;48.358;10.960;2023-10-13T06:42:07;7.47;;;3.70;;
81546;SDS011;71078;48.358;10.960;2023-10-13T06:44:27;11.80;;;3.63;;
81546;SDS011;71078;48.358;10.960;2023-10-13T06:46:52;8.27;;;3.30;;
81546;SDS011;71078;48.358;10.960;2023-10-13T06:49:12;9.32;;;3.80;;
81546;SDS011;71078;48.358;10.960;2023-10-13T06:51:35;8.73;;;2.55;;
81546;SDS011;71078;48.358;10.960;2023-10-13T06:53:58;6.80;;;2.45;;
81546;SDS011;71078;48.358;10.960;2023-10-13T06:56:20;6.75;;;2.65;;
81546;SDS011;71078;48.358;10.960;2023-10-13T06:58:50;10.07;;;2.00;;
81546;SDS011;71078;48.358;10.960;2023-10-13T07:01:11;6.78;;;3.20;;
81546;SDS011;71078;48.358;10.960;2023-10-13T07:03:35;7.00;;;1.98;;
81546;SDS011;71078;48.358;10.960;2023-10-13T07:05:56;7.72;;;2.08;;
81546;SDS011;71078;48.358;10.960;2023-10-13T07:08:19;7.35;;;1.85;;
81546;SDS011;71078;48.358;10.960;2023-10-13T07:10:51;10.38;;;4.15;;
81546;SDS011;71078;48.358;10.960;2023-10-13T07:13:19;7.60;;;1.80;;
81546;SDS011;71078;48.358;10.960;2023-10-13T07:15:40;7.18;;;3.28;;
81546;SDS011;71078;48.358;10.960;2023-10-13T07:18:08;8.05;;;3.00;;
81546;SDS011;71078;48.358;10.960;2023-10-13T07:20:29;6.82;;;2.65;;
81546;SDS011;71078;48.358;10.960;2023-10-13T07:22:52;7.07;;;3.72;;
81546;SDS011;71078;48.358;10.960;2023-10-13T07:25:26;9.27;;;3.65;;
81546;SDS011;71078;48.358;10.960;2023-10-13T07:27:47;10.02;;;4.50;;
81546;SDS011;71078;48.358;10.960;2023-10-13T07:30:09;6.95;;;3.28;;
81546;SDS011;71078;48.358;10.960;2023-10-13T07:32:33;6.60;;;2.20;;
81546;SDS011;71078;48.358;10.960;2023-10-13T07:34:55;6.95;;;1.95;;
81546;SDS011;71078;48.358;10.960;2023-10-13T07:37:16;6.22;;;1.58;;
81546;SDS011;71078;48.358;10.960;2023-10-13T07:39:36;6.18;;;2.03;;
81546;SDS011;71078;48.358;10.960;2023-10-13T07:42:00;6.93;;;4.38;;
81546;SDS011;71078;48.358;10.960;2023-10-13T07:44:24;6.97;;;2.72;;
81546;SDS011;71078;48.358;10.960;2023-10-13T07:46:45;8.00;;;3.80;;
81546;SDS011;71078;48.358;10.960;2023-10-13T07:49:18;6.43;;;1.70;;
81546;SDS011;71078;48.358;10.960;2023-10-13T07:51:41;7.82;;;3.42;;
81546;SDS011;71078;48.358;10.960;2023-10-13T07:54:05;6.07;;;1.80;;
81546;SDS011;71078;48.358;10.960;2023-10-13T07:56:29;7.05;;;1.70;;
81546;SDS011;71078;48.358;10.960;2023-10-13T07:58:51;8.68;;;3.50;;
81546;SDS011;71078;48.358;10.960;2023-10-13T08:01:24;7.65;;;4.07;;
81546;SDS011;71078;48.358;10.960;2023-10-13T08:03:45;7.47;;;4.18;;
81546;SDS011;71078;48.358;10.960;2023-10-13T08:06:06;7.03;;;1.65;;
81546;SDS011;71078;48.358;10.960;2023-10-13T08:08:41;6.50;;;2.20;;
81546;SDS011;71078;48.358;10.960;2023-10-13T08:13:58;6.43;;;1.70;;
81546;SDS011;71078;48.358;10.960;2023-10-13T08:16:32;7.75;;;1.73;;
81546;SDS011;71078;48.358;10.960;2023-10-13T08:19:12;6.68;;;1.75;;
81546;SDS011;71078;48.358;10.960;2023-10-13T08:21:37;6.50;;;1.75;;
81546;SDS011;71078;48.358;10.960;2023-10-13T08:23:57;8.10;;;1.50;;
81546;SDS011;71078;48.358;10.960;2023-10-13T08:26:20;6.15;;;1.30;;
81546;SDS011;71078;48.358;10.960;2023-10-13T08:28:56;8.10;;;1.63;;
81546;SDS011;71078;48.358;10.960;2023-10-13T08:31:38;6.53;;;1.38;;
81546;SDS011;71078;48.358;10.960;2023-10-13T08:34:02;6.45;;;1.70;;
81546;SDS011;71078;48.358;10.960;2023-10-13T08:36:27;5.95;;;1.50;;
81546;SDS011;71078;48.358;10.960;2023-10-13T08:38:49;8.98;;;2.60;;
81546;SDS011;71078;48.358;10.960;2023-10-13T08:41:15;9.27;;;2.65;;
81546;SDS011;71078;48.358;10.960;2023-10-13T08:43:39;8.75;;;3.53;;
81546;SDS011;71078;48.358;10.960;2023-10-13T08:46:13;6.45;;;2.97;;
81546;SDS011;71078;48.358;10.960;2023-10-13T08:48:52;7.80;;;1.30;;
81546;SDS011;71078;48.358;10.960;2023-10-13T08:51:24;7.53;;;3.78;;
81546;SDS011;71078;48.358;10.960;2023-10-13T08:54:04;6.65;;;1.42;;
81546;SDS011;71078;48.358;10.960;2023-10-13T08:56:39;6.50;;;2.70;;
81546;SDS011;71078;48.358;10.960;2023-10-13T08:59:07;7.95;;;3.13;;
81546;SDS011;71078;48.358;10.960;2023-10-13T09:01:30;8.18;;;2.75;;
81546;SDS011;71078;48.358;10.960;2023-10-13T09:04:13;7.80;;;2.33;;
81546;SDS011;71078;48.358;10.960;2023-10-13T09:06:38;7.97;;;1.50;;
81546;SDS011;71078;48.358;10.960;2023-10-13T09:09:04;5.85;;;1.45;;
81546;SDS011;71078;48.358;10.960;2023-10-13T09:11:30;5.53;;;1.50;;
81546;SDS011;71078;48.358;10.960;2023-10-13T09:14:12;8.32;;;2.13;;
81546;SDS011;71078;48.358;10.960;2023-10-13T09:16:49;9.90;;;1.92;;
81546;SDS011;71078;48.358;10.960;2023-10-13T09:19:12;6.60;;;3.28;;
81546;SDS011;71078;48.358;10.960;2023-10-13T09:21:39;6.30;;;2.67;;
81546;SDS011;71078;48.358;10.960;2023-10-13T09:24:02;7.55;;;2.53;;
81546;SDS011;71078;48.358;10.960;2023-10-13T09:26:42;8.80;;;1.75;;
81546;SDS011;71078;48.358;10.960;2023-10-13T09:29:13;6.10;;;1.42;;
81546;SDS011;71078;48.358;10.960;2023-10-13T09:31:35;8.43;;;1.70;;
81546;SDS011;71078;48.358;10.960;2023-10-13T09:33:56;6.65;;;1.63;;
81546;SDS011;71078;48.358;10.960;2023-10-13T09:36:18;5.85;;;1.38;;
81546;SDS011;71078;48.358;10.960;2023-10-13T09:38:39;8.77;;;1.63;;
81546;SDS011;71078;48.358;10.960;2023-10-13T09:41:01;6.40;;;1.52;;
81546;SDS011;71078;48.358;10.960;2023-10-13T09:43:38;6.38;;;1.50;;
81546;SDS011;71078;48.358;10.960;2023-10-13T09:46:00;6.43;;;1.60;;
81546;SDS011;71078;48.358;10.960;2023-10-13T09:48:38;7.97;;;1.42;;
81546;SDS011;71078;48.358;10.960;2023-10-13T09:51:09;6.85;;;1.75;;
81546;SDS011;71078;48.358;10.960;2023-10-13T09:53:32;5.70;;;1.45;;
81546;SDS011;71078;48.358;10.960;2023-10-13T09:55:58;9.77;;;3.03;;
81546;SDS011;71078;48.358;10.960;2023-10-13T09:58:32;6.95;;;1.20;;
81546;SDS011;71078;48.358;10.960;2023-10-13T10:03:27;7.78;;;1.95;;
81546;SDS011;71078;48.358;10.960;2023-10-13T10:06:01;6.45;;;1.13;;
81546;SDS011;71078;48.358;10.960;2023-10-13T10:08:46;5.20;;;1.13;;
81546;SDS011;71078;48.358;10.960;2023-10-13T10:14:41;7.80;;;2.80;;
81546;SDS011;71078;48.358;10.960;2023-10-13T10:16:56;7.57;;;1.15;;
81546;SDS011;71078;48.358;10.960;2023-10-13T10:19:30;5.93;;;1.38;;
81546;SDS011;71078;48.358;10.960;2023-10-13T10:22:03;6.43;;;1.25;;
81546;SDS011;71078;48.358;10.960;2023-10-13T10:24:37;6.40;;;1.20;;
81546;SDS011;71078;48.358;10.960;2023-10-13T10:26:58;7.30;;;1.55;;
81546;SDS011;71078;48.358;10.960;2023-10-13T10:29:19;6.22;;;1.92;;
81546;SDS011;71078;48.358;10.960;2023-10-13T10:31:40;6.70;;;1.10;;
81546;SDS011;71078;48.358;10.960;2023-10-13T10:34:29;7.53;;;1.35;;
81546;SDS011;71078;48.358;10.960;2023-10-13T10:36:54;6.13;;;1.55;;
81546;SDS011;71078;48.358;10.960;2023-10-13T10:39:15;6.38;;;1.73;;
81546;SDS011;71078;48.358;10.960;2023-10-13T10:41:35;7.00;;;1.52;;
81546;SDS011;71078;48.358;10.960;2023-10-13T10:44:14;5.53;;;2.13;;
81546;SDS011;71078;48.358;10.960;2023-10-13T10:46:56;6.82;;;1.38;;
81546;SDS011;71078;48.358;10.960;2023-10-13T10:49:18;7.28;;;1.67;;
81546;SDS011;71078;48.358;10.960;2023-10-13T10:51:48;8.70;;;1.52;;
81546;SDS011;71078;48.358;10.960;2023-10-13T10:54:19;5.20;;;1.10;;
81546;SDS011;71078;48.358;10.960;2023-10-13T10:56:40;9.15;;;1.80;;
81546;SDS011;71078;48.358;10.960;2023-10-13T10:59:01;8.00;;;1.38;;
81546;SDS011;71078;48.358;10.960;2023-10-13T11:01:26;6.80;;;1.55;;
81546;SDS011;71078;48.358;10.960;2023-10-13T11:03:55;7.30;;;1.38;;
81546;SDS011;71078;48.358;10.960;2023-10-13T11:06:18;6.35;;;2.50;;
81546;SDS011;71078;48.358;10.960;2023-10-13T11:08:40;7.53;;;1.77;;
81546;SDS011;71078;48.358;10.960;2023-10-13T11:11:04;6.75;;;1.60;;
81546;SDS011;71078;48.358;10.960;2023-10-13T11:13:26;7.30;;;1.48;;
81546;SDS011;71078;48.358;10.960;2023-10-13T11:15:51;7.07;;;1.50;;
81546;SDS011;71078;48.358;10.960;2023-10-13T11:18:12;7.55;;;1.50;;
81546;SDS011;71078;48.358;10.960;2023-10-13T11:20:42;7.13;;;1.58;;
81546;SDS011;71078;48.358;10.960;2023-10-13T11:23:12;6.75;;;1.45;;
81546;SDS011;71078;48.358;10.960;2023-10-13T11:25:34;9.52;;;1.45;;
81546;SDS011;71078;48.358;10.960;2023-10-13T11:27:56;6.35;;;1.58;;
81546;SDS011;71078;48.358;10.960;2023-10-13T11:30:19;6.45;;;1.55;;
81546;SDS011;71078;48.358;10.960;2023-10-13T11:32:56;7.55;;;1.52;;
81546;SDS011;71078;48.358;10.960;2023-10-13T11:35:27;6.18;;;2.05;;
81546;SDS011;71078;48.358;10.960;2023-10-13T11:38:08;5.97;;;1.33;;
81546;SDS011;71078;48.358;10.960;2023-10-13T11:40:49;6.03;;;1.30;;
81546;SDS011;71078;48.358;10.960;2023-10-13T11:43:21;9.63;;;1.08;;
81546;SDS011;71078;48.358;10.960;2023-10-13T11:45:48;6.75;;;1.33;;
81546;SDS011;71078;48.358;10.960;2023-10-13T11:48:39;5.00;;;1.25;;
81546;SDS011;71078;48.358;10.960;2023-10-13T11:51:04;6.78;;;1.52;;
81546;SDS011;71078;48.358;10.960;2023-10-13T11:53:38;5.10;;;1.20;;
81546;SDS011;71078;48.358;10.960;2023-10-13T11:55:58;5.82;;;1.30;;
81546;SDS011;71078;48.358;10.960;2023-10-13T11:58:19;7.47;;;1.25;;
81546;SDS011;71078;48.358;10.960;2023-10-13T12:00:39;6.95;;;1.10;;
81546;SDS011;71078;48.358;10.960;2023-10-13T12:03:14;6.20;;;1.52;;
81546;SDS011;71078;48.358;10.960;2023-10-13T12:05:54;6.00;;;1.27;;
81546;SDS011;71078;48.358;10.960;2023-10-13T12:08:47;6.88;;;1.10;;
81546;SDS011;71078;48.358;10.960;2023-10-13T12:11:14;6.68;;;1.27;;
81546;SDS011;71078;48.358;10.960;2023-10-13T12:13:50;6.03;;;1.00;;
81546;SDS011;71078;48.358;10.960;2023-10-13T12:16:11;8.55;;;1.75;;
81546;SDS011;71078;48.358;10.960;2023-10-13T12:18:33;9.30;;;1.30;;
81546;SDS011;71078;48.358;10.960;2023-10-13T12:20:54;6.38;;;1.27;;
81546;SDS011;71078;48.358;10.960;2023-10-13T12:23:17;7.22;;;1.70;;
81546;SDS011;71078;48.358;10.960;2023-10-13T12:25:39;5.80;;;1.38;;
81546;SDS011;71078;48.358;10.960;2023-10-13T12:28:17;5.25;;;1.52;;
81546;SDS011;71078;48.358;10.960;2023-10-13T12:30:43;6.13;;;1.60;;
81546;SDS011;71078;48.358;10.960;2023-10-13T12:33:11;5.60;;;1.10;;
81546;SDS011;71078;48.358;10.960;2023-10-13T12:35:32;8.20;;;1.63;;
81546;SDS011;71078;48.358;10.960;2023-10-13T12:37:55;8.05;;;1.25;;
81546;SDS011;71078;48.358;10.960;2023-10-13T12:40:25;7.60;;;1.75;;
81546;SDS011;71078;48.358;10.960;2023-10-13T12:43:05;7.00;;;1.20;;
81546;SDS011;71078;48.358;10.960;2023-10-13T12:45:46;7.47;;;1.20;;
81546;SDS011;71078;48.358;10.960;2023-10-13T12:48:26;6.25;;;1.38;;
81546;SDS011;71078;48.358;10.960;2023-10-13T12:51:06;8.65;;;1.45;;
81546;SDS011;71078;48.358;10.960;2023-10-13T12:53:46;7.18;;;1.45;;
81546;SDS011;71078;48.358;10.960;2023-10-13T12:56:08;4.25;;;1.02;;
81546;SDS011;71078;48.358;10.960;2023-10-13T12:58:31;5.78;;;1.45;;
81546;SDS011;71078;48.358;10.960;2023-10-13T13:00:52;7.03;;;1.90;;
81546;SDS011;71078;48.358;10.960;2023-10-13T13:03:25;6.20;;;1.40;;
81546;SDS011;71078;48.358;10.960;2023-10-13T13:05:49;7.40;;;1.17;;
81546;SDS011;71078;48.358;10.960;2023-10-13T13:08:16;7.57;;;1.92;;
81546;SDS011;71078;48.358;10.960;2023-10-13T13:10:43;5.78;;;1.40;;
81546;SDS011;71078;48.358;10.960;2023-10-13T13:13:06;7.85;;;1.45;;
81546;SDS011;71078;48.358;10.960;2023-10-13T13:15:28;5.72;;;1.30;;
81546;SDS011;71078;48.358;10.960;2023-10-13T13:17:48;6.97;;;1.50;;
81546;SDS011;71078;48.358;10.960;2023-10-13T13:20:09;6.57;;;1.20;;
81546;SDS011;71078;48.358;10.960;2023-10-13T13:22:47;6.63;;;1.38;;
81546;SDS011;71078;48.358;10.960;2023-10-13T13:25:09;8.20;;;1.60;;
81546;SDS011;71078;48.358;10.960;2023-10-13T13:27:31;6.63;;;1.30;;
81546;SDS011;71078;48.358;10.960;2023-10-13T13:29:51;6.10;;;2.03;;
81546;SDS011;71078;48.358;10.960;2023-10-13T13:32:15;6.30;;;1.65;;
81546;SDS011;71078;48.358;10.960;2023-10-13T13:34:46;6.38;;;1.30;;
81546;SDS011;71078;48.358;10.960;2023-10-13T13:37:15;6.97;;;1.45;;
81546;SDS011;71078;48.358;10.960;2023-10-13T13:39:36;6.45;;;2.05;;
81546;SDS011;71078;48.358;10.960;2023-10-13T13:42:03;7.68;;;1.73;;
81546;SDS011;71078;48.358;10.960;2023-10-13T13:44:24;4.95;;;1.00;;
81546;SDS011;71078;48.358;10.960;2023-10-13T13:46:49;7.97;;;1.73;;
81546;SDS011;71078;48.358;10.960;2023-10-13T13:49:12;6.38;;;2.10;;
81546;SDS011;71078;48.358;10.960;2023-10-13T13:51:38;6.18;;;1.30;;
81546;SDS011;71078;48.358;10.960;2023-10-13T13:53:59;5.63;;;1.58;;
81546;SDS011;71078;48.358;10.960;2023-10-13T13:56:24;8.20;;;2.28;;
81546;SDS011;71078;48.358;10.960;2023-10-13T13:58:48;5.75;;;1.40;;
81546;SDS011;71078;48.358;10.960;2023-10-13T14:01:12;5.68;;;1.50;;
81546;SDS011;71078;48.358;10.960;2023-10-13T14:03:34;7.03;;;1.63;;
81546;SDS011;71078;48.358;10.960;2023-10-13T14:05:55;6.53;;;1.50;;
81546;SDS011;71078;48.358;10.960;2023-10-13T14:08:16;6.28;;;1.55;;
81546;SDS011;71078;48.358;10.960;2023-10-13T14:10:38;6.45;;;1.60;;
81546;SDS011;71078;48.358;10.960;2023-10-13T14:13:17;6.03;;;1.23;;
81546;SDS011;71078;48.358;10.960;2023-10-13T14:15:38;6.53;;;1.58;;
81546;SDS011;71078;48.358;10.960;2023-10-13T14:18:05;6.28;;;1.50;;
81546;SDS011;71078;48.358;10.960;2023-10-13T14:20:27;6.38;;;1.73;;
81546;SDS011;71078;48.358;10.960;2023-10-13T14:22:48;7.25;;;1.83;;
81546;SDS011;71078;48.358;10.960;2023-10-13T14:25:10;6.30;;;2.08;;
81546;SDS011;71078;48.358;10.960;2023-10-13T14:27:35;6.07;;;1.95;;
81546;SDS011;71078;48.358;10.960;2023-10-13T14:29:55;5.18;;;1.60;;
81546;SDS011;71078;48.358;10.960;2023-10-13T14:32:18;9.93;;;1.80;;
81546;SDS011;71078;48.358;10.960;2023-10-13T14:34:40;7.72;;;1.70;;
81546;SDS011;71078;48.358;10.960;2023-10-13T14:37:04;7.05;;;1.77;;
81546;SDS011;71078;48.358;10.960;2023-10-13T14:39:25;6.82;;;1.90;;
81546;SDS011;71078;48.358;10.960;2023-10-13T14:41:50;6.43;;;1.90;;
81546;SDS011;71078;48.358;10.960;2023-10-13T14:44:11;8.48;;;1.90;;
81546;SDS011;71078;48.358;10.960;2023-10-13T14:46:33;6.45;;;1.70;;
81546;SDS011;71078;48.358;10.960;2023-10-13T14:49:00;6.15;;;1.52;;
81546;SDS011;71078;48.358;10.960;2023-10-13T14:51:22;6.68;;;1.60;;
81546;SDS011;71078;48.358;10.960;2023-10-13T14:53:46;5.63;;;1.42;;
81546;SDS011;71078;48.358;10.960;2023-10-13T14:56:07;5.05;;;1.70;;